DAL689 KLAX-KRDU
Flight info
| Callsign | DAL689 |
|---|---|
| Flight time | N/A |
| Altitude | 35000 |
| Route | DOTSS2 CLEEE PKE HIDAT KA27O KA30Q KA33U/N0456F370 FTI KA36Y MMB RZC Q36 BNA J46 VXV KPASS ALDAN4 |
| Aircraft | B739/M-SDE2E3FGHIRWXY/LB1 |
Departure
| Time | 2026-05-07 23:31 |
|---|---|
| Airport | Los Angeles International Airport (KLAX) |
Arrival
| Time | N/A |
|---|---|
| Airport | Raleigh-Durham International Airport (KRDU) |
| Time | Latitude | Longitude | Altitude | Speed | Heading |
|---|---|---|---|---|---|
| 2026-05-07 23:02 | 33.94622 | -118.40483 | 134 ft | 0 kts | 90° |
| 2026-05-07 23:17 | 33.94622 | -118.40484 | 125 ft | 1 kts | 90° |
| 2026-05-07 23:18 | 33.94622 | -118.40500 | 119 ft | 3 kts | 91° |
| 2026-05-07 23:18 | 33.94623 | -118.40524 | 121 ft | 3 kts | 94° |
| 2026-05-07 23:18 | 33.94624 | -118.40540 | 119 ft | 3 kts | 98° |
| 2026-05-07 23:18 | 33.94626 | -118.40557 | 121 ft | 3 kts | 102° |
| 2026-05-07 23:19 | 33.94632 | -118.40580 | 121 ft | 3 kts | 107° |
| 2026-05-07 23:19 | 33.94635 | -118.40606 | 123 ft | 1 kts | 85° |
| 2026-05-07 23:19 | 33.94635 | -118.40612 | 122 ft | 0 kts | 85° |
| 2026-05-07 23:24 | 33.94644 | -118.40585 | 125 ft | 6 kts | 50° |
| 2026-05-07 23:24 | 33.94668 | -118.40572 | 123 ft | 0 kts | 13° |
| 2026-05-07 23:24 | 33.94719 | -118.40567 | 122 ft | 12 kts | 345° |
| 2026-05-07 23:25 | 33.94763 | -118.40579 | 123 ft | 6 kts | 359° |
| 2026-05-07 23:25 | 33.94792 | -118.40528 | 123 ft | 7 kts | 90° |
| 2026-05-07 23:25 | 33.94796 | -118.40477 | 125 ft | 12 kts | 84° |
| 2026-05-07 23:25 | 33.94807 | -118.40358 | 121 ft | 16 kts | 83° |
| 2026-05-07 23:26 | 33.94851 | -118.40293 | 123 ft | 9 kts | 7° |
| 2026-05-07 23:26 | 33.94901 | -118.40246 | 122 ft | 6 kts | 74° |
| 2026-05-07 23:26 | 33.94906 | -118.40202 | 120 ft | 14 kts | 83° |
| 2026-05-07 23:26 | 33.94921 | -118.40055 | 124 ft | 18 kts | 83° |
| 2026-05-07 23:27 | 33.94975 | -118.39916 | 122 ft | 0 kts | 1° |
| 2026-05-07 23:29 | 33.95034 | -118.39938 | 121 ft | 8 kts | 310° |
| 2026-05-07 23:29 | 33.95038 | -118.39985 | 121 ft | 0 kts | 261° |
| 2026-05-07 23:30 | 33.95038 | -118.39986 | 121 ft | 0 kts | 261° |
| 2026-05-07 23:31 | 33.95011 | -118.40252 | 125 ft | 68 kts | 263° |
| 2026-05-07 23:31 | 33.94931 | -118.41026 | 122 ft | 126 kts | 263° |
| 2026-05-07 23:31 | 33.94810 | -118.42250 | 236 ft | 162 kts | 263° |
| 2026-05-07 23:31 | 33.94639 | -118.43612 | 727 ft | 173 kts | 259° |
| 2026-05-07 23:32 | 33.94411 | -118.45109 | 1273 ft | 186 kts | 258° |
| 2026-05-07 23:32 | 33.94132 | -118.46618 | 2061 ft | 181 kts | 256° |
| 2026-05-07 23:32 | 33.93804 | -118.48040 | 2863 ft | 173 kts | 254° |
| 2026-05-07 23:32 | 33.93402 | -118.49421 | 3413 ft | 180 kts | 248° |
| 2026-05-07 23:33 | 33.92975 | -118.50881 | 3781 ft | 191 kts | 261° |
| 2026-05-07 23:33 | 33.92892 | -118.52464 | 4369 ft | 186 kts | 274° |
| 2026-05-07 23:33 | 33.92977 | -118.53958 | 5115 ft | 178 kts | 276° |
| 2026-05-07 23:33 | 33.92947 | -118.55523 | 5343 ft | 198 kts | 253° |
| 2026-05-07 23:34 | 33.92154 | -118.56898 | 5689 ft | 211 kts | 223° |
| 2026-05-07 23:34 | 33.90987 | -118.58041 | 6033 ft | 222 kts | 221° |
| 2026-05-07 23:34 | 33.89754 | -118.59252 | 6348 ft | 234 kts | 221° |
| 2026-05-07 23:34 | 33.88467 | -118.60524 | 6661 ft | 246 kts | 221° |
| 2026-05-07 23:35 | 33.87122 | -118.61861 | 6929 ft | 260 kts | 221° |
| 2026-05-07 23:35 | 33.85688 | -118.63297 | 7194 ft | 275 kts | 221° |
| 2026-05-07 23:35 | 33.84191 | -118.64805 | 7550 ft | 287 kts | 221° |
| 2026-05-07 23:35 | 33.82632 | -118.66342 | 7976 ft | 292 kts | 218° |
| 2026-05-07 23:36 | 33.80913 | -118.67649 | 8398 ft | 295 kts | 198° |
| 2026-05-07 23:36 | 33.78889 | -118.67813 | 8937 ft | 296 kts | 164° |
| 2026-05-07 23:36 | 33.77106 | -118.66701 | 9489 ft | 295 kts | 135° |
| 2026-05-07 23:36 | 33.75781 | -118.64835 | 10029 ft | 294 kts | 119° |
| 2026-05-07 23:37 | 33.74749 | -118.62692 | 10541 ft | 299 kts | 116° |
| 2026-05-07 23:37 | 33.73735 | -118.60477 | 11048 ft | 307 kts | 116° |
| 2026-05-07 23:37 | 33.72683 | -118.58223 | 11566 ft | 314 kts | 117° |
| 2026-05-07 23:37 | 33.71611 | -118.55980 | 12081 ft | 320 kts | 117° |
| 2026-05-07 23:38 | 33.70489 | -118.53660 | 12615 ft | 326 kts | 118° |
| 2026-05-07 23:38 | 33.69389 | -118.51258 | 13140 ft | 331 kts | 112° |
| 2026-05-07 23:38 | 33.68562 | -118.48688 | 13698 ft | 334 kts | 106° |
| 2026-05-07 23:38 | 33.67842 | -118.46053 | 14189 ft | 339 kts | 105° |
| 2026-05-07 23:39 | 33.67094 | -118.43314 | 14695 ft | 344 kts | 106° |
| 2026-05-07 23:39 | 33.66324 | -118.40613 | 15177 ft | 348 kts | 107° |
| 2026-05-07 23:39 | 33.65513 | -118.37851 | 15699 ft | 352 kts | 107° |
| 2026-05-07 23:39 | 33.64692 | -118.35042 | 16166 ft | 358 kts | 104° |
| 2026-05-07 23:40 | 33.64339 | -118.32042 | 16260 ft | 370 kts | 88° |
| 2026-05-07 23:40 | 33.64364 | -118.28897 | 16374 ft | 385 kts | 87° |
| 2026-05-07 23:40 | 33.64403 | -118.25632 | 16477 ft | 398 kts | 87° |
| 2026-05-07 23:40 | 33.64436 | -118.22268 | 16564 ft | 410 kts | 88° |
| 2026-05-07 23:41 | 33.64457 | -118.18812 | 16746 ft | 418 kts | 88° |
| 2026-05-07 23:41 | 33.64467 | -118.15313 | 17091 ft | 421 kts | 88° |
| 2026-05-07 23:41 | 33.64468 | -118.11794 | 17516 ft | 422 kts | 88° |
| 2026-05-07 23:41 | 33.64466 | -118.08263 | 17923 ft | 424 kts | 88° |
| 2026-05-07 23:42 | 33.64462 | -118.04716 | 18297 ft | 426 kts | 88° |
| 2026-05-07 23:42 | 33.64457 | -118.01147 | 18644 ft | 429 kts | 88° |
| 2026-05-07 23:42 | 33.64452 | -117.97549 | 18966 ft | 431 kts | 88° |
| 2026-05-07 23:42 | 33.64445 | -117.93945 | 19306 ft | 433 kts | 88° |
| 2026-05-07 23:43 | 33.64438 | -117.90323 | 19625 ft | 435 kts | 88° |
| 2026-05-07 23:43 | 33.64431 | -117.86697 | 19932 ft | 437 kts | 88° |
| 2026-05-07 23:43 | 33.64421 | -117.83041 | 20236 ft | 439 kts | 88° |
| 2026-05-07 23:43 | 33.64445 | -117.79383 | 20535 ft | 440 kts | 84° |
| 2026-05-07 23:44 | 33.64927 | -117.75769 | 20828 ft | 440 kts | 75° |
| 2026-05-07 23:44 | 33.65644 | -117.72214 | 21126 ft | 441 kts | 74° |
| 2026-05-07 23:44 | 33.66391 | -117.68679 | 21390 ft | 443 kts | 74° |
| 2026-05-07 23:44 | 33.67150 | -117.65044 | 21659 ft | 446 kts | 74° |
| 2026-05-07 23:45 | 33.67872 | -117.61477 | 21929 ft | 447 kts | 75° |
| 2026-05-07 23:45 | 33.68588 | -117.57841 | 22175 ft | 450 kts | 75° |
| 2026-05-07 23:45 | 33.69304 | -117.54129 | 22411 ft | 452 kts | 75° |
| 2026-05-07 23:45 | 33.69998 | -117.50497 | 22706 ft | 453 kts | 75° |
| 2026-05-07 23:46 | 33.70698 | -117.46811 | 22994 ft | 454 kts | 75° |
| 2026-05-07 23:46 | 33.71402 | -117.43103 | 23198 ft | 457 kts | 75° |
| 2026-05-07 23:46 | 33.72111 | -117.39365 | 23437 ft | 459 kts | 75° |
| 2026-05-07 23:46 | 33.72821 | -117.35621 | 23663 ft | 460 kts | 75° |
| 2026-05-07 23:47 | 33.73531 | -117.31873 | 23876 ft | 461 kts | 75° |
| 2026-05-07 23:47 | 33.74244 | -117.28106 | 24076 ft | 462 kts | 75° |
| 2026-05-07 23:47 | 33.74951 | -117.24327 | 24282 ft | 464 kts | 76° |
| 2026-05-07 23:47 | 33.75283 | -117.20463 | 24443 ft | 469 kts | 88° |
| 2026-05-07 23:48 | 33.75172 | -117.16536 | 24692 ft | 470 kts | 90° |
| 2026-05-07 23:48 | 33.75007 | -117.12601 | 24890 ft | 472 kts | 90° |
| 2026-05-07 23:48 | 33.74870 | -117.08906 | 25065 ft | 473 kts | 90° |
| 2026-05-07 23:48 | 33.74756 | -117.04821 | 25245 ft | 474 kts | 89° |
| 2026-05-07 23:49 | 33.74672 | -117.00900 | 25444 ft | 475 kts | 89° |
| 2026-05-07 23:49 | 33.74592 | -116.96930 | 25656 ft | 476 kts | 89° |
| 2026-05-07 23:49 | 33.74508 | -116.92900 | 25853 ft | 477 kts | 89° |
| 2026-05-07 23:49 | 33.74421 | -116.88962 | 26034 ft | 478 kts | 89° |
| 2026-05-07 23:50 | 33.74329 | -116.84964 | 26198 ft | 479 kts | 89° |
| 2026-05-07 23:50 | 33.74235 | -116.80957 | 26324 ft | 480 kts | 89° |
| 2026-05-07 23:50 | 33.74140 | -116.76960 | 26524 ft | 479 kts | 89° |
| 2026-05-07 23:50 | 33.74044 | -116.72967 | 26680 ft | 478 kts | 89° |
| 2026-05-07 23:51 | 33.73948 | -116.68978 | 26884 ft | 478 kts | 89° |
| 2026-05-07 23:51 | 33.73851 | -116.64991 | 27114 ft | 477 kts | 89° |
| 2026-05-07 23:51 | 33.73752 | -116.60999 | 27359 ft | 477 kts | 89° |
| 2026-05-07 23:51 | 33.73652 | -116.57021 | 27635 ft | 476 kts | 89° |
| 2026-05-07 23:52 | 33.73551 | -116.53064 | 27943 ft | 474 kts | 89° |
| 2026-05-07 23:52 | 33.73450 | -116.49115 | 28264 ft | 473 kts | 89° |
| 2026-05-07 23:52 | 33.73347 | -116.45167 | 28532 ft | 473 kts | 89° |
| 2026-05-07 23:52 | 33.73243 | -116.41222 | 28829 ft | 472 kts | 89° |
| 2026-05-07 23:53 | 33.73139 | -116.37291 | 29159 ft | 470 kts | 89° |
| 2026-05-07 23:53 | 33.73035 | -116.33457 | 29462 ft | 469 kts | 89° |
| 2026-05-07 23:53 | 33.72926 | -116.29453 | 29736 ft | 469 kts | 89° |
| 2026-05-07 23:53 | 33.72819 | -116.25542 | 30034 ft | 468 kts | 89° |
| 2026-05-07 23:54 | 33.72710 | -116.21640 | 30338 ft | 466 kts | 89° |
| 2026-05-07 23:54 | 33.72600 | -116.17753 | 30618 ft | 465 kts | 89° |
| 2026-05-07 23:54 | 33.72490 | -116.13871 | 30878 ft | 465 kts | 89° |
| 2026-05-07 23:54 | 33.72382 | -116.10104 | 31123 ft | 464 kts | 89° |
| 2026-05-07 23:55 | 33.72553 | -116.06205 | 31352 ft | 458 kts | 75° |
| 2026-05-07 23:55 | 33.73458 | -116.02569 | 31605 ft | 454 kts | 69° |
| 2026-05-07 23:55 | 33.74493 | -115.98988 | 31825 ft | 454 kts | 68° |
| 2026-05-07 23:55 | 33.75537 | -115.95406 | 32067 ft | 452 kts | 68° |
| 2026-05-07 23:56 | 33.76566 | -115.91840 | 32357 ft | 451 kts | 69° |
| 2026-05-07 23:56 | 33.77584 | -115.88263 | 32593 ft | 451 kts | 69° |
| 2026-05-07 23:56 | 33.78587 | -115.84696 | 32810 ft | 451 kts | 69° |
| 2026-05-07 23:56 | 33.79569 | -115.81169 | 33041 ft | 450 kts | 69° |
| 2026-05-07 23:57 | 33.80559 | -115.77594 | 33288 ft | 449 kts | 69° |
| 2026-05-07 23:57 | 33.81541 | -115.74035 | 33493 ft | 449 kts | 69° |
| 2026-05-07 23:57 | 33.82521 | -115.70481 | 33688 ft | 449 kts | 69° |
| 2026-05-07 23:57 | 33.83500 | -115.66923 | 33917 ft | 448 kts | 69° |
| 2026-05-07 23:58 | 33.84477 | -115.63367 | 34105 ft | 447 kts | 69° |
| 2026-05-07 23:58 | 33.85453 | -115.59817 | 34256 ft | 447 kts | 69° |
| 2026-05-07 23:58 | 33.86430 | -115.56255 | 34390 ft | 448 kts | 69° |
| 2026-05-07 23:58 | 33.87403 | -115.52704 | 34572 ft | 447 kts | 69° |
| 2026-05-07 23:59 | 33.88047 | -115.50353 | 34684 ft | 447 kts | 69° |
| 2026-05-07 23:59 | 33.89333 | -115.45648 | 34829 ft | 441 kts | 69° |
| 2026-05-07 23:59 | 33.91259 | -115.38592 | 34856 ft | 444 kts | 69° |
| 2026-05-08 00:00 | 33.93180 | -115.31539 | 34844 ft | 447 kts | 69° |
| 2026-05-08 00:00 | 33.95111 | -115.24425 | 34846 ft | 448 kts | 69° |
| 2026-05-08 00:01 | 33.97043 | -115.17291 | 34834 ft | 447 kts | 69° |
| 2026-05-08 00:01 | 33.98960 | -115.10193 | 34836 ft | 446 kts | 69° |
| 2026-05-08 00:02 | 34.00875 | -115.03083 | 34831 ft | 445 kts | 69° |
| 2026-05-08 00:02 | 34.02458 | -114.97195 | 34839 ft | 444 kts | 69° |
| 2026-05-08 00:03 | 34.04663 | -114.88968 | 34843 ft | 443 kts | 69° |
| 2026-05-08 00:03 | 34.06555 | -114.81891 | 34833 ft | 443 kts | 69° |
| 2026-05-08 00:04 | 34.08443 | -114.74810 | 34840 ft | 443 kts | 69° |
| 2026-05-08 00:04 | 34.10327 | -114.67730 | 34842 ft | 443 kts | 69° |
| 2026-05-08 00:05 | 34.12284 | -114.60674 | 34844 ft | 443 kts | 68° |
| 2026-05-08 00:05 | 34.14280 | -114.53621 | 34841 ft | 444 kts | 68° |
| 2026-05-08 00:06 | 34.16265 | -114.46570 | 34840 ft | 444 kts | 69° |
| 2026-05-08 00:06 | 34.18229 | -114.39542 | 34840 ft | 444 kts | 69° |
| 2026-05-08 00:07 | 34.20198 | -114.32469 | 34840 ft | 444 kts | 69° |
| 2026-05-08 00:07 | 34.22156 | -114.25412 | 34842 ft | 444 kts | 69° |
| 2026-05-08 00:08 | 34.24116 | -114.18333 | 34840 ft | 444 kts | 69° |
| 2026-05-08 00:08 | 34.25741 | -114.12449 | 34850 ft | 444 kts | 69° |
| 2026-05-08 00:09 | 34.28022 | -114.04174 | 34855 ft | 443 kts | 69° |
| 2026-05-08 00:09 | 34.29962 | -113.97112 | 34855 ft | 442 kts | 69° |
| 2026-05-08 00:10 | 34.31885 | -113.90096 | 34849 ft | 442 kts | 69° |
| 2026-05-08 00:10 | 34.33813 | -113.83042 | 34858 ft | 441 kts | 69° |
| 2026-05-08 00:11 | 34.35422 | -113.77144 | 34853 ft | 441 kts | 69° |
| 2026-05-08 00:11 | 34.37327 | -113.70141 | 34849 ft | 440 kts | 69° |
| 2026-05-08 00:12 | 34.39228 | -113.63136 | 34863 ft | 439 kts | 69° |
| 2026-05-08 00:12 | 34.41124 | -113.56134 | 34851 ft | 438 kts | 69° |
| 2026-05-08 00:13 | 34.43020 | -113.49113 | 34858 ft | 438 kts | 69° |
| 2026-05-08 00:13 | 34.44913 | -113.42086 | 34863 ft | 439 kts | 69° |
| 2026-05-08 00:14 | 34.46804 | -113.35047 | 34861 ft | 440 kts | 69° |
| 2026-05-08 00:14 | 34.48696 | -113.27984 | 34873 ft | 441 kts | 69° |
| 2026-05-08 00:15 | 34.50582 | -113.20927 | 34874 ft | 442 kts | 70° |
| 2026-05-08 00:15 | 34.52476 | -113.13819 | 34890 ft | 443 kts | 70° |
| 2026-05-08 00:16 | 34.54365 | -113.06714 | 34895 ft | 444 kts | 70° |
| 2026-05-08 00:16 | 34.56107 | -112.99559 | 34887 ft | 448 kts | 77° |
| 2026-05-08 00:17 | 34.56429 | -112.91974 | 34901 ft | 454 kts | 91° |
| 2026-05-08 00:17 | 34.55894 | -112.84448 | 34906 ft | 456 kts | 92° |
| 2026-05-08 00:18 | 34.55325 | -112.76665 | 34947 ft | 456 kts | 91° |
| 2026-05-08 00:18 | 34.54800 | -112.69049 | 34977 ft | 456 kts | 91° |
| 2026-05-08 00:19 | 34.54288 | -112.61408 | 35012 ft | 455 kts | 91° |
| 2026-05-08 00:19 | 34.53773 | -112.53768 | 35038 ft | 455 kts | 91° |
| 2026-05-08 00:20 | 34.53251 | -112.46121 | 35048 ft | 454 kts | 91° |
| 2026-05-08 00:20 | 34.52726 | -112.38504 | 35051 ft | 453 kts | 91° |
| 2026-05-08 00:21 | 34.52197 | -112.30898 | 35037 ft | 452 kts | 91° |
| 2026-05-08 00:21 | 34.51668 | -112.23363 | 34999 ft | 451 kts | 91° |
| 2026-05-08 00:22 | 34.51133 | -112.15803 | 34967 ft | 449 kts | 91° |
| 2026-05-08 00:22 | 34.50596 | -112.08260 | 34927 ft | 449 kts | 91° |
| 2026-05-08 00:23 | 34.50330 | -112.00729 | 34896 ft | 443 kts | 82° |
| 2026-05-08 00:23 | 34.51564 | -111.93548 | 34904 ft | 436 kts | 69° |
| 2026-05-08 00:24 | 34.53423 | -111.86538 | 34919 ft | 437 kts | 69° |
| 2026-05-08 00:24 | 34.55281 | -111.79513 | 34942 ft | 437 kts | 70° |
| 2026-05-08 00:25 | 34.57107 | -111.72486 | 34954 ft | 438 kts | 70° |
| 2026-05-08 00:25 | 34.58920 | -111.65436 | 34943 ft | 438 kts | 70° |
| 2026-05-08 00:26 | 34.60721 | -111.58398 | 34962 ft | 439 kts | 70° |
| 2026-05-08 00:26 | 34.62529 | -111.51312 | 34969 ft | 440 kts | 70° |
| 2026-05-08 00:27 | 34.64334 | -111.44221 | 34961 ft | 440 kts | 70° |
| 2026-05-08 00:27 | 34.66143 | -111.37099 | 34985 ft | 441 kts | 70° |
| 2026-05-08 00:28 | 34.67946 | -111.29980 | 34991 ft | 442 kts | 70° |
| 2026-05-08 00:28 | 34.69745 | -111.22856 | 34984 ft | 442 kts | 70° |
| 2026-05-08 00:29 | 34.71536 | -111.15744 | 34990 ft | 442 kts | 70° |
| 2026-05-08 00:29 | 34.73322 | -111.08636 | 34997 ft | 442 kts | 70° |
| 2026-05-08 00:30 | 34.75126 | -111.01433 | 34987 ft | 442 kts | 70° |
| 2026-05-08 00:30 | 34.76905 | -110.94311 | 35013 ft | 442 kts | 70° |
| 2026-05-08 00:31 | 34.78688 | -110.87153 | 35013 ft | 442 kts | 70° |
| 2026-05-08 00:31 | 34.80467 | -110.79989 | 35035 ft | 442 kts | 70° |
| 2026-05-08 00:32 | 34.82245 | -110.72814 | 35052 ft | 442 kts | 70° |
| 2026-05-08 00:32 | 34.84014 | -110.65652 | 35046 ft | 443 kts | 70° |
| 2026-05-08 00:33 | 34.85781 | -110.58479 | 35049 ft | 443 kts | 70° |
| 2026-05-08 00:33 | 34.87540 | -110.51317 | 35030 ft | 444 kts | 70° |
| 2026-05-08 00:34 | 34.89291 | -110.44169 | 35018 ft | 444 kts | 70° |
| 2026-05-08 00:34 | 34.91032 | -110.37041 | 34977 ft | 441 kts | 71° |
| 2026-05-08 00:35 | 34.92759 | -110.29943 | 34960 ft | 437 kts | 71° |
| 2026-05-08 00:35 | 34.94487 | -110.22838 | 34967 ft | 441 kts | 71° |
| 2026-05-08 00:36 | 34.96223 | -110.15671 | 34955 ft | 443 kts | 71° |
| 2026-05-08 00:36 | 34.97953 | -110.08505 | 34959 ft | 444 kts | 71° |
| 2026-05-08 00:37 | 34.99675 | -110.01356 | 34946 ft | 444 kts | 71° |
| 2026-05-08 00:38 | 35.01504 | -109.90198 | 34947 ft | 446 kts | 78° |
| 2026-05-08 00:38 | 35.02487 | -109.82744 | 34954 ft | 446 kts | 78° |
| 2026-05-08 00:39 | 35.03494 | -109.75306 | 34951 ft | 445 kts | 77° |
| 2026-05-08 00:39 | 35.04522 | -109.67877 | 34954 ft | 445 kts | 77° |
| 2026-05-08 00:40 | 35.05557 | -109.60446 | 34953 ft | 445 kts | 77° |
| 2026-05-08 00:40 | 35.06587 | -109.53017 | 34951 ft | 445 kts | 77° |
| 2026-05-08 00:41 | 35.07616 | -109.45561 | 34952 ft | 446 kts | 77° |
| 2026-05-08 00:41 | 35.08640 | -109.38101 | 34948 ft | 446 kts | 77° |
| 2026-05-08 00:42 | 35.09660 | -109.30633 | 34948 ft | 446 kts | 78° |
| 2026-05-08 00:42 | 35.10675 | -109.23167 | 34948 ft | 447 kts | 78° |
| 2026-05-08 00:43 | 35.11686 | -109.15694 | 34949 ft | 447 kts | 78° |
| 2026-05-08 00:43 | 35.12689 | -109.08247 | 34949 ft | 448 kts | 78° |
| 2026-05-08 00:44 | 35.13695 | -109.00739 | 34940 ft | 449 kts | 78° |
| 2026-05-08 00:44 | 35.14694 | -108.93248 | 34941 ft | 449 kts | 78° |
| 2026-05-08 00:45 | 35.15693 | -108.85719 | 34949 ft | 450 kts | 78° |
| 2026-05-08 00:45 | 35.16690 | -108.78168 | 34951 ft | 450 kts | 78° |
| 2026-05-08 00:46 | 35.17673 | -108.70685 | 34957 ft | 451 kts | 78° |
| 2026-05-08 00:46 | 35.18658 | -108.63151 | 34958 ft | 452 kts | 78° |
| 2026-05-08 00:47 | 35.19646 | -108.55556 | 34950 ft | 452 kts | 78° |
| 2026-05-08 00:47 | 35.20630 | -108.47951 | 34958 ft | 453 kts | 78° |
| 2026-05-08 00:48 | 35.21607 | -108.40369 | 34962 ft | 453 kts | 78° |
| 2026-05-08 00:48 | 35.22581 | -108.32766 | 34962 ft | 454 kts | 78° |
| 2026-05-08 00:49 | 35.23552 | -108.25149 | 35005 ft | 454 kts | 78° |
| 2026-05-08 00:49 | 35.24518 | -108.17527 | 35030 ft | 455 kts | 79° |
| 2026-05-08 00:50 | 35.25479 | -108.09908 | 35075 ft | 455 kts | 79° |
| 2026-05-08 00:50 | 35.26440 | -108.02249 | 35094 ft | 456 kts | 79° |
| 2026-05-08 00:51 | 35.27392 | -107.94625 | 35114 ft | 456 kts | 79° |
| 2026-05-08 00:51 | 35.28345 | -107.86951 | 35115 ft | 456 kts | 79° |
| 2026-05-08 00:52 | 35.29293 | -107.79278 | 35093 ft | 457 kts | 79° |
| 2026-05-08 00:52 | 35.30238 | -107.71587 | 35061 ft | 457 kts | 79° |
| 2026-05-08 00:53 | 35.31179 | -107.63883 | 35032 ft | 458 kts | 79° |
| 2026-05-08 00:53 | 35.32119 | -107.56154 | 35001 ft | 459 kts | 79° |
| 2026-05-08 00:54 | 35.33053 | -107.48421 | 34972 ft | 460 kts | 79° |
| 2026-05-08 00:54 | 35.33985 | -107.40668 | 34963 ft | 460 kts | 79° |
| 2026-05-08 00:55 | 35.34911 | -107.32926 | 34963 ft | 460 kts | 79° |
| 2026-05-08 00:55 | 35.35835 | -107.25151 | 34963 ft | 461 kts | 79° |
| 2026-05-08 00:56 | 35.36748 | -107.17423 | 34946 ft | 461 kts | 79° |
| 2026-05-08 00:56 | 35.37664 | -107.09636 | 34965 ft | 462 kts | 79° |
| 2026-05-08 00:57 | 35.38574 | -107.01850 | 34970 ft | 463 kts | 79° |
| 2026-05-08 00:57 | 35.39483 | -106.94022 | 34982 ft | 463 kts | 80° |
| 2026-05-08 00:58 | 35.40382 | -106.86241 | 34983 ft | 464 kts | 80° |
| 2026-05-08 00:58 | 35.41131 | -106.79723 | 34981 ft | 464 kts | 80° |
| 2026-05-08 00:59 | 35.42027 | -106.71885 | 34969 ft | 465 kts | 80° |
| 2026-05-08 00:59 | 35.42920 | -106.64029 | 34953 ft | 465 kts | 80° |
| 2026-05-08 01:00 | 35.43808 | -106.56164 | 34927 ft | 466 kts | 80° |
| 2026-05-08 01:00 | 35.44687 | -106.48341 | 34922 ft | 466 kts | 80° |
| 2026-05-08 01:01 | 35.45571 | -106.40417 | 34954 ft | 466 kts | 80° |
| 2026-05-08 01:01 | 35.46441 | -106.32579 | 34984 ft | 467 kts | 80° |
| 2026-05-08 01:02 | 35.47311 | -106.24687 | 35013 ft | 468 kts | 80° |
| 2026-05-08 01:02 | 35.48175 | -106.16811 | 35030 ft | 468 kts | 80° |
| 2026-05-08 01:03 | 35.49039 | -106.08877 | 35052 ft | 469 kts | 80° |
| 2026-05-08 01:03 | 35.49900 | -106.00937 | 35046 ft | 469 kts | 80° |
| 2026-05-08 01:04 | 35.51170 | -105.93081 | 35039 ft | 468 kts | 75° |
| 2026-05-08 01:04 | 35.52669 | -105.85348 | 35017 ft | 469 kts | 74° |
| 2026-05-08 01:05 | 35.54159 | -105.77567 | 34989 ft | 471 kts | 75° |
| 2026-05-08 01:05 | 35.55619 | -105.69716 | 34969 ft | 472 kts | 75° |
| 2026-05-08 01:06 | 35.57064 | -105.61842 | 34948 ft | 473 kts | 75° |
| 2026-05-08 01:06 | 35.58506 | -105.53951 | 34960 ft | 473 kts | 75° |
| 2026-05-08 01:07 | 35.59946 | -105.46043 | 34980 ft | 474 kts | 75° |
| 2026-05-08 01:07 | 35.61381 | -105.38139 | 35014 ft | 474 kts | 76° |
| 2026-05-08 01:08 | 35.62804 | -105.30270 | 35040 ft | 475 kts | 76° |
| 2026-05-08 01:08 | 35.64233 | -105.22337 | 35064 ft | 475 kts | 76° |
| 2026-05-08 01:09 | 35.65656 | -105.14409 | 35067 ft | 475 kts | 76° |
| 2026-05-08 01:09 | 35.66805 | -105.06404 | 35065 ft | 477 kts | 80° |
| 2026-05-08 01:10 | 35.67731 | -104.98325 | 35042 ft | 477 kts | 81° |
| 2026-05-08 01:10 | 35.68656 | -104.90216 | 35006 ft | 478 kts | 80° |
| 2026-05-08 01:11 | 35.69610 | -104.82112 | 34972 ft | 478 kts | 80° |
| 2026-05-08 01:11 | 35.70571 | -104.74064 | 34939 ft | 479 kts | 80° |
| 2026-05-08 01:12 | 35.71538 | -104.65952 | 34924 ft | 480 kts | 80° |
| 2026-05-08 01:12 | 35.72501 | -104.57810 | 34929 ft | 480 kts | 81° |
| 2026-05-08 01:13 | 35.73455 | -104.49678 | 34928 ft | 481 kts | 81° |
| 2026-05-08 01:13 | 35.74407 | -104.41524 | 34934 ft | 481 kts | 81° |
| 2026-05-08 01:14 | 35.75351 | -104.33375 | 34932 ft | 482 kts | 81° |
| 2026-05-08 01:14 | 35.76295 | -104.25193 | 34930 ft | 483 kts | 81° |
| 2026-05-08 01:15 | 35.77228 | -104.17045 | 34940 ft | 484 kts | 81° |
| 2026-05-08 01:15 | 35.78164 | -104.08829 | 34943 ft | 484 kts | 81° |
| 2026-05-08 01:16 | 35.79094 | -104.00610 | 34942 ft | 485 kts | 81° |
| 2026-05-08 01:16 | 35.80020 | -103.92369 | 34939 ft | 486 kts | 81° |
| 2026-05-08 01:17 | 35.80942 | -103.84122 | 34944 ft | 486 kts | 81° |
| 2026-05-08 01:17 | 35.81860 | -103.75851 | 34943 ft | 487 kts | 81° |
| 2026-05-08 01:18 | 35.82773 | -103.67578 | 34942 ft | 488 kts | 81° |
| 2026-05-08 01:18 | 35.83675 | -103.59352 | 34941 ft | 489 kts | 82° |
| 2026-05-08 01:19 | 35.84583 | -103.51011 | 34943 ft | 490 kts | 82° |
| 2026-05-08 01:19 | 35.85486 | -103.42664 | 34948 ft | 491 kts | 82° |
| 2026-05-08 01:20 | 35.86383 | -103.34316 | 34946 ft | 492 kts | 82° |
| 2026-05-08 01:20 | 35.87277 | -103.25944 | 34939 ft | 493 kts | 82° |
| 2026-05-08 01:21 | 35.88166 | -103.17558 | 34946 ft | 494 kts | 82° |
| 2026-05-08 01:21 | 35.89047 | -103.09198 | 34943 ft | 494 kts | 82° |
| 2026-05-08 01:22 | 35.89927 | -103.00782 | 34942 ft | 495 kts | 82° |
| 2026-05-08 01:22 | 35.90804 | -102.92339 | 34957 ft | 496 kts | 82° |
| 2026-05-08 01:23 | 35.91676 | -102.83885 | 34972 ft | 497 kts | 82° |
| 2026-05-08 01:23 | 35.92542 | -102.75429 | 34985 ft | 498 kts | 82° |
| 2026-05-08 01:24 | 35.93405 | -102.66949 | 35000 ft | 499 kts | 82° |
| 2026-05-08 01:24 | 35.94263 | -102.58452 | 35009 ft | 499 kts | 83° |
| 2026-05-08 01:25 | 35.95112 | -102.49985 | 35010 ft | 500 kts | 83° |
| 2026-05-08 01:25 | 35.95961 | -102.41447 | 34997 ft | 501 kts | 83° |
| 2026-05-08 01:26 | 35.96806 | -102.32902 | 34985 ft | 502 kts | 83° |
| 2026-05-08 01:26 | 35.97646 | -102.24338 | 34977 ft | 503 kts | 83° |
| 2026-05-08 01:27 | 35.98484 | -102.15730 | 34989 ft | 504 kts | 83° |
| 2026-05-08 01:27 | 35.99309 | -102.07201 | 34995 ft | 505 kts | 83° |
| 2026-05-08 01:28 | 36.00176 | -101.98580 | 34992 ft | 507 kts | 80° |
| 2026-05-08 01:28 | 36.01551 | -101.90029 | 34993 ft | 508 kts | 77° |
| 2026-05-08 01:29 | 36.03098 | -101.81501 | 34969 ft | 509 kts | 77° |
| 2026-05-08 01:29 | 36.04611 | -101.72944 | 34953 ft | 511 kts | 78° |
| 2026-05-08 01:30 | 36.06077 | -101.64341 | 34933 ft | 512 kts | 78° |
| 2026-05-08 01:30 | 36.07513 | -101.55779 | 34930 ft | 513 kts | 78° |
| 2026-05-08 01:31 | 36.08957 | -101.47129 | 34930 ft | 514 kts | 78° |
| 2026-05-08 01:31 | 36.10399 | -101.38465 | 34935 ft | 515 kts | 78° |
| 2026-05-08 01:32 | 36.11839 | -101.29786 | 34942 ft | 515 kts | 78° |
| 2026-05-08 01:32 | 36.13275 | -101.21089 | 34947 ft | 516 kts | 78° |
| 2026-05-08 01:33 | 36.14699 | -101.12424 | 34947 ft | 517 kts | 78° |
| 2026-05-08 01:33 | 36.16126 | -101.03695 | 34953 ft | 518 kts | 78° |
| 2026-05-08 01:34 | 36.17552 | -100.94931 | 34955 ft | 519 kts | 78° |
| 2026-05-08 01:34 | 36.18974 | -100.86150 | 34970 ft | 521 kts | 78° |
| 2026-05-08 01:35 | 36.20393 | -100.77343 | 34962 ft | 522 kts | 79° |
| 2026-05-08 01:35 | 36.21811 | -100.68500 | 34977 ft | 523 kts | 79° |
| 2026-05-08 01:36 | 36.23214 | -100.59713 | 34958 ft | 524 kts | 79° |
| 2026-05-08 01:36 | 36.24623 | -100.50838 | 34956 ft | 525 kts | 79° |
| 2026-05-08 01:37 | 36.26026 | -100.41953 | 34953 ft | 526 kts | 79° |
| 2026-05-08 01:37 | 36.27424 | -100.33062 | 34943 ft | 527 kts | 79° |
| 2026-05-08 01:38 | 36.28821 | -100.24128 | 34963 ft | 528 kts | 79° |
| 2026-05-08 01:38 | 36.30213 | -100.15182 | 34950 ft | 529 kts | 79° |
| 2026-05-08 01:39 | 36.31601 | -100.06218 | 34956 ft | 530 kts | 79° |
| 2026-05-08 01:39 | 36.32984 | -99.97244 | 34957 ft | 531 kts | 79° |
| 2026-05-08 01:40 | 36.34322 | -99.88232 | 34964 ft | 531 kts | 83° |
| 2026-05-08 01:40 | 36.34623 | -99.79148 | 34967 ft | 530 kts | 92° |
| 2026-05-08 01:41 | 36.34586 | -99.69987 | 34963 ft | 532 kts | 92° |
| 2026-05-08 01:41 | 36.34560 | -99.60790 | 34995 ft | 533 kts | 92° |
| 2026-05-08 01:42 | 36.34581 | -99.51571 | 34999 ft | 535 kts | 92° |
| 2026-05-08 01:42 | 36.34612 | -99.43880 | 34992 ft | 537 kts | 92° |
| 2026-05-08 01:43 | 36.34650 | -99.33038 | 34981 ft | 539 kts | 92° |
| 2026-05-08 01:43 | 36.34671 | -99.23799 | 34961 ft | 540 kts | 92° |
| 2026-05-08 01:44 | 36.34682 | -99.15983 | 34950 ft | 541 kts | 92° |
| 2026-05-08 01:44 | 36.34687 | -99.06634 | 34925 ft | 542 kts | 92° |
| 2026-05-08 01:45 | 36.34685 | -98.97265 | 34927 ft | 543 kts | 92° |
| 2026-05-08 01:45 | 36.34676 | -98.87882 | 34926 ft | 544 kts | 92° |
| 2026-05-08 01:46 | 36.34660 | -98.78494 | 34925 ft | 545 kts | 92° |
| 2026-05-08 01:46 | 36.34636 | -98.69130 | 34922 ft | 546 kts | 92° |
| 2026-05-08 01:47 | 36.34605 | -98.59702 | 34917 ft | 547 kts | 92° |
| 2026-05-08 01:47 | 36.34566 | -98.50191 | 34914 ft | 548 kts | 93° |
| 2026-05-08 01:48 | 36.34494 | -98.36036 | 34918 ft | 550 kts | 93° |
| 2026-05-08 01:48 | 36.34436 | -98.26527 | 34919 ft | 551 kts | 93° |
| 2026-05-08 01:49 | 36.34371 | -98.16997 | 34921 ft | 553 kts | 93° |
| 2026-05-08 01:49 | 36.34296 | -98.07450 | 34918 ft | 551 kts | 94° |
| 2026-05-08 01:50 | 36.34179 | -97.98087 | 34907 ft | 535 kts | 94° |
| 2026-05-08 01:50 | 36.34081 | -97.88997 | 34910 ft | 520 kts | 94° |
| 2026-05-08 01:51 | 36.33996 | -97.80159 | 34944 ft | 505 kts | 94° |
| 2026-05-08 01:51 | 36.33907 | -97.71552 | 34944 ft | 492 kts | 95° |
| 2026-05-08 01:52 | 36.33813 | -97.63224 | 34939 ft | 479 kts | 95° |
| 2026-05-08 01:52 | 36.33715 | -97.55079 | 34939 ft | 465 kts | 95° |
| 2026-05-08 01:53 | 36.33615 | -97.47190 | 34930 ft | 451 kts | 95° |
| 2026-05-08 01:53 | 36.33514 | -97.39545 | 34920 ft | 435 kts | 96° |
| 2026-05-08 01:54 | 36.33411 | -97.32161 | 34797 ft | 423 kts | 96° |
| 2026-05-08 01:54 | 36.33355 | -97.28507 | 34546 ft | 424 kts | 96° |
| 2026-05-08 01:54 | 36.33297 | -97.24830 | 34213 ft | 427 kts | 96° |
| 2026-05-08 01:55 | 36.33238 | -97.21142 | 33909 ft | 430 kts | 96° |
| 2026-05-08 01:55 | 36.33179 | -97.17428 | 33681 ft | 430 kts | 95° |
| 2026-05-08 01:55 | 36.33065 | -97.10110 | 33556 ft | 418 kts | 95° |
| 2026-05-08 01:56 | 36.32950 | -97.02986 | 33299 ft | 411 kts | 95° |
| 2026-05-08 01:56 | 36.32888 | -96.99434 | 33044 ft | 411 kts | 95° |
| 2026-05-08 01:56 | 36.32825 | -96.95883 | 32798 ft | 412 kts | 95° |
| 2026-05-08 01:57 | 36.32762 | -96.92334 | 32618 ft | 411 kts | 95° |
| 2026-05-08 01:57 | 36.32699 | -96.88814 | 32509 ft | 407 kts | 95° |
| 2026-05-08 01:57 | 36.32574 | -96.81872 | 32330 ft | 399 kts | 95° |
| 2026-05-08 01:58 | 36.32509 | -96.78442 | 32177 ft | 397 kts | 95° |
| 2026-05-08 01:58 | 36.32444 | -96.75030 | 31988 ft | 396 kts | 95° |
| 2026-05-08 01:58 | 36.32377 | -96.71615 | 31795 ft | 396 kts | 95° |
| 2026-05-08 01:58 | 36.32310 | -96.68206 | 31641 ft | 394 kts | 95° |
| 2026-05-08 01:59 | 36.32243 | -96.64866 | 31532 ft | 391 kts | 94° |
| 2026-05-08 01:59 | 36.32176 | -96.61503 | 31424 ft | 388 kts | 94° |
| 2026-05-08 01:59 | 36.32039 | -96.54854 | 31191 ft | 383 kts | 94° |
| 2026-05-08 02:00 | 36.31970 | -96.51556 | 31034 ft | 382 kts | 94° |
| 2026-05-08 02:00 | 36.31899 | -96.48257 | 30870 ft | 382 kts | 94° |
| 2026-05-08 02:00 | 36.31828 | -96.44975 | 30734 ft | 380 kts | 94° |
| 2026-05-08 02:00 | 36.31757 | -96.41716 | 30634 ft | 377 kts | 94° |
| 2026-05-08 02:01 | 36.31614 | -96.35259 | 30425 ft | 372 kts | 94° |
| 2026-05-08 02:01 | 36.31542 | -96.32057 | 30300 ft | 371 kts | 94° |
| 2026-05-08 02:01 | 36.31468 | -96.28864 | 30152 ft | 370 kts | 94° |
| 2026-05-08 02:02 | 36.31394 | -96.25685 | 30001 ft | 369 kts | 94° |
| 2026-05-08 02:02 | 36.31320 | -96.22511 | 29840 ft | 368 kts | 94° |
| 2026-05-08 02:02 | 36.31245 | -96.19346 | 29687 ft | 367 kts | 94° |
| 2026-05-08 02:02 | 36.31170 | -96.16231 | 29539 ft | 366 kts | 94° |
| 2026-05-08 02:03 | 36.31094 | -96.13083 | 29381 ft | 365 kts | 94° |
| 2026-05-08 02:03 | 36.31017 | -96.09940 | 29238 ft | 364 kts | 93° |
| 2026-05-08 02:03 | 36.30939 | -96.06800 | 29102 ft | 362 kts | 93° |
| 2026-05-08 02:03 | 36.30861 | -96.03677 | 28956 ft | 361 kts | 94° |
| 2026-05-08 02:04 | 36.30782 | -96.00567 | 28814 ft | 360 kts | 94° |
| 2026-05-08 02:04 | 36.30704 | -95.97478 | 28671 ft | 359 kts | 93° |
| 2026-05-08 02:04 | 36.30624 | -95.94385 | 28532 ft | 358 kts | 94° |
| 2026-05-08 02:04 | 36.30544 | -95.91337 | 28394 ft | 358 kts | 93° |
| 2026-05-08 02:05 | 36.30464 | -95.88267 | 28260 ft | 357 kts | 93° |
| 2026-05-08 02:05 | 36.30382 | -95.85189 | 28136 ft | 356 kts | 93° |
| 2026-05-08 02:05 | 36.30300 | -95.82126 | 28017 ft | 355 kts | 93° |
| 2026-05-08 02:05 | 36.30217 | -95.79071 | 27890 ft | 354 kts | 93° |
| 2026-05-08 02:06 | 36.30134 | -95.76035 | 27768 ft | 353 kts | 93° |
| 2026-05-08 02:06 | 36.30051 | -95.72997 | 27646 ft | 352 kts | 93° |
| 2026-05-08 02:06 | 36.29966 | -95.69963 | 27523 ft | 351 kts | 93° |
| 2026-05-08 02:06 | 36.29882 | -95.66952 | 27406 ft | 350 kts | 93° |
| 2026-05-08 02:07 | 36.29796 | -95.63943 | 27294 ft | 349 kts | 93° |
| 2026-05-08 02:07 | 36.29710 | -95.60928 | 27185 ft | 349 kts | 93° |
| 2026-05-08 02:07 | 36.29624 | -95.57933 | 27083 ft | 348 kts | 93° |
| 2026-05-08 02:07 | 36.29537 | -95.54937 | 26971 ft | 347 kts | 93° |
| 2026-05-08 02:08 | 36.29449 | -95.51957 | 26863 ft | 346 kts | 93° |
| 2026-05-08 02:08 | 36.29361 | -95.48974 | 26755 ft | 345 kts | 93° |
| 2026-05-08 02:08 | 36.29273 | -95.46004 | 26649 ft | 345 kts | 93° |
| 2026-05-08 02:08 | 36.29184 | -95.43041 | 26544 ft | 344 kts | 93° |
| 2026-05-08 02:09 | 36.29095 | -95.40124 | 26442 ft | 343 kts | 93° |
| 2026-05-08 02:09 | 36.29005 | -95.37169 | 26344 ft | 342 kts | 93° |
| 2026-05-08 02:09 | 36.28915 | -95.34227 | 26241 ft | 341 kts | 93° |
| 2026-05-08 02:09 | 36.28823 | -95.31288 | 26137 ft | 341 kts | 93° |
| 2026-05-08 02:10 | 36.28732 | -95.28348 | 26039 ft | 340 kts | 93° |
| 2026-05-08 02:10 | 36.28639 | -95.25417 | 25941 ft | 340 kts | 93° |
| 2026-05-08 02:10 | 36.28547 | -95.22495 | 25849 ft | 339 kts | 93° |
| 2026-05-08 02:10 | 36.28454 | -95.19580 | 25766 ft | 338 kts | 93° |
| 2026-05-08 02:11 | 36.28360 | -95.16672 | 25679 ft | 337 kts | 93° |
| 2026-05-08 02:11 | 36.28267 | -95.13812 | 25592 ft | 336 kts | 93° |
| 2026-05-08 02:11 | 36.28172 | -95.10915 | 25506 ft | 336 kts | 93° |
| 2026-05-08 02:11 | 36.28077 | -95.08025 | 25423 ft | 335 kts | 93° |
| 2026-05-08 02:12 | 36.27982 | -95.05140 | 25340 ft | 334 kts | 93° |
| 2026-05-08 02:12 | 36.27886 | -95.02264 | 25259 ft | 334 kts | 93° |
| 2026-05-08 02:12 | 36.27789 | -94.99393 | 25175 ft | 333 kts | 93° |
| 2026-05-08 02:12 | 36.27693 | -94.96531 | 25096 ft | 332 kts | 93° |
| 2026-05-08 02:13 | 36.27595 | -94.93673 | 25014 ft | 332 kts | 93° |
| 2026-05-08 02:13 | 36.27497 | -94.90819 | 24936 ft | 331 kts | 93° |
| 2026-05-08 02:13 | 36.27399 | -94.87974 | 24859 ft | 330 kts | 93° |
| 2026-05-08 02:13 | 36.27300 | -94.85129 | 24781 ft | 330 kts | 93° |
| 2026-05-08 02:14 | 36.27201 | -94.82298 | 24708 ft | 329 kts | 93° |
| 2026-05-08 02:14 | 36.27102 | -94.79501 | 24647 ft | 328 kts | 93° |
| 2026-05-08 02:14 | 36.27003 | -94.76679 | 24579 ft | 327 kts | 93° |
| 2026-05-08 02:14 | 36.26902 | -94.73867 | 24508 ft | 327 kts | 93° |
| 2026-05-08 02:15 | 36.26802 | -94.71058 | 24435 ft | 326 kts | 93° |
| 2026-05-08 02:15 | 36.26701 | -94.68252 | 24367 ft | 326 kts | 93° |
| 2026-05-08 02:15 | 36.26599 | -94.65452 | 24289 ft | 325 kts | 93° |
| 2026-05-08 02:15 | 36.26497 | -94.62659 | 24219 ft | 325 kts | 93° |
| 2026-05-08 02:16 | 36.26394 | -94.59866 | 24158 ft | 324 kts | 93° |
| 2026-05-08 02:16 | 36.26292 | -94.57080 | 24093 ft | 323 kts | 93° |
| 2026-05-08 02:16 | 36.26189 | -94.54308 | 24025 ft | 322 kts | 93° |
| 2026-05-08 02:16 | 36.26085 | -94.51540 | 23956 ft | 322 kts | 93° |
| 2026-05-08 02:17 | 36.25982 | -94.48768 | 23889 ft | 321 kts | 93° |
| 2026-05-08 02:17 | 36.25879 | -94.46036 | 23825 ft | 321 kts | 93° |
| 2026-05-08 02:17 | 36.25774 | -94.43277 | 23761 ft | 320 kts | 93° |
| 2026-05-08 02:17 | 36.25671 | -94.40558 | 23691 ft | 319 kts | 93° |
| 2026-05-08 02:18 | 36.25566 | -94.37809 | 23624 ft | 319 kts | 93° |
| 2026-05-08 02:18 | 36.25462 | -94.35067 | 23551 ft | 318 kts | 93° |
| 2026-05-08 02:18 | 36.25357 | -94.32327 | 23473 ft | 317 kts | 92° |
| 2026-05-08 02:18 | 36.25252 | -94.29603 | 23396 ft | 317 kts | 92° |
| 2026-05-08 02:19 | 36.25148 | -94.26876 | 23324 ft | 316 kts | 92° |
| 2026-05-08 02:19 | 36.25045 | -94.24170 | 23258 ft | 315 kts | 92° |
| 2026-05-08 02:19 | 36.24945 | -94.21484 | 23167 ft | 315 kts | 92° |
| 2026-05-08 02:19 | 36.24840 | -94.18776 | 23106 ft | 314 kts | 93° |
| 2026-05-08 02:20 | 36.24731 | -94.16075 | 23037 ft | 314 kts | 93° |
| 2026-05-08 02:20 | 36.24616 | -94.13373 | 22973 ft | 313 kts | 93° |
| 2026-05-08 02:20 | 36.24514 | -94.10682 | 22910 ft | 312 kts | 92° |
| 2026-05-08 02:20 | 36.24440 | -94.07992 | 22839 ft | 312 kts | 91° |
| 2026-05-08 02:21 | 36.24378 | -94.05313 | 22766 ft | 311 kts | 91° |
| 2026-05-08 02:21 | 36.24321 | -94.02641 | 22696 ft | 311 kts | 91° |
| 2026-05-08 02:21 | 36.24266 | -93.99967 | 22639 ft | 310 kts | 91° |
| 2026-05-08 02:21 | 36.24211 | -93.97294 | 22583 ft | 309 kts | 91° |
| 2026-05-08 02:22 | 36.24156 | -93.94637 | 22542 ft | 308 kts | 91° |
| 2026-05-08 02:22 | 36.24101 | -93.92023 | 22469 ft | 308 kts | 91° |
| 2026-05-08 02:22 | 36.24046 | -93.89374 | 22395 ft | 308 kts | 91° |
| 2026-05-08 02:22 | 36.23990 | -93.86727 | 22325 ft | 307 kts | 91° |
| 2026-05-08 02:23 | 36.23933 | -93.84081 | 22263 ft | 307 kts | 91° |
| 2026-05-08 02:23 | 36.23876 | -93.81434 | 22207 ft | 306 kts | 91° |
| 2026-05-08 02:23 | 36.23819 | -93.78799 | 22154 ft | 306 kts | 91° |
| 2026-05-08 02:23 | 36.23761 | -93.76161 | 22097 ft | 305 kts | 91° |
| 2026-05-08 02:24 | 36.23702 | -93.73537 | 22040 ft | 305 kts | 91° |
| 2026-05-08 02:24 | 36.23644 | -93.70916 | 21979 ft | 305 kts | 91° |
| 2026-05-08 02:24 | 36.23584 | -93.68293 | 21916 ft | 304 kts | 91° |
| 2026-05-08 02:24 | 36.23524 | -93.65674 | 21860 ft | 304 kts | 91° |
| 2026-05-08 02:25 | 36.23464 | -93.63060 | 21824 ft | 303 kts | 91° |
| 2026-05-08 02:25 | 36.23403 | -93.60452 | 21772 ft | 303 kts | 91° |
| 2026-05-08 02:25 | 36.23342 | -93.57851 | 21719 ft | 302 kts | 91° |
| 2026-05-08 02:25 | 36.23281 | -93.55275 | 21669 ft | 302 kts | 91° |
| 2026-05-08 02:26 | 36.23218 | -93.52671 | 21614 ft | 302 kts | 91° |
| 2026-05-08 02:26 | 36.23155 | -93.50067 | 21565 ft | 302 kts | 91° |
| 2026-05-08 02:26 | 36.23092 | -93.47470 | 21522 ft | 302 kts | 91° |
| 2026-05-08 02:26 | 36.23028 | -93.44874 | 21490 ft | 301 kts | 91° |
| 2026-05-08 02:27 | 36.22963 | -93.42286 | 21443 ft | 301 kts | 91° |
| 2026-05-08 02:27 | 36.22898 | -93.39705 | 21402 ft | 300 kts | 91° |
| 2026-05-08 02:27 | 36.22834 | -93.37118 | 21349 ft | 300 kts | 91° |
| 2026-05-08 02:27 | 36.22768 | -93.34538 | 21306 ft | 299 kts | 91° |
| 2026-05-08 02:28 | 36.22702 | -93.31965 | 21256 ft | 299 kts | 91° |
| 2026-05-08 02:28 | 36.22635 | -93.29391 | 21214 ft | 299 kts | 91° |
| 2026-05-08 02:28 | 36.22568 | -93.26819 | 21167 ft | 299 kts | 91° |
| 2026-05-08 02:28 | 36.22501 | -93.24244 | 21128 ft | 299 kts | 91° |
| 2026-05-08 02:29 | 36.22432 | -93.21677 | 21086 ft | 298 kts | 91° |
| 2026-05-08 02:29 | 36.22365 | -93.19141 | 21049 ft | 298 kts | 91° |
| 2026-05-08 02:29 | 36.22295 | -93.16549 | 21001 ft | 297 kts | 91° |
| 2026-05-08 02:29 | 36.22226 | -93.14024 | 20960 ft | 297 kts | 91° |
| 2026-05-08 02:30 | 36.22156 | -93.11469 | 20913 ft | 297 kts | 91° |
| 2026-05-08 02:30 | 36.22086 | -93.08919 | 20877 ft | 297 kts | 91° |
| 2026-05-08 02:30 | 36.22015 | -93.06371 | 20848 ft | 296 kts | 91° |
| 2026-05-08 02:30 | 36.21944 | -93.03838 | 20817 ft | 296 kts | 91° |
| 2026-05-08 02:31 | 36.21872 | -93.01295 | 20780 ft | 295 kts | 91° |
| 2026-05-08 02:31 | 36.21800 | -92.98756 | 20734 ft | 295 kts | 91° |
| 2026-05-08 02:31 | 36.21727 | -92.96214 | 20685 ft | 296 kts | 91° |
| 2026-05-08 02:31 | 36.21654 | -92.93671 | 20648 ft | 296 kts | 91° |
| 2026-05-08 02:32 | 36.21580 | -92.91126 | 20611 ft | 295 kts | 91° |
| 2026-05-08 02:32 | 36.21506 | -92.88603 | 20578 ft | 295 kts | 91° |
| 2026-05-08 02:32 | 36.21431 | -92.86066 | 20551 ft | 294 kts | 91° |
| 2026-05-08 02:32 | 36.21382 | -92.84391 | 20531 ft | 293 kts | 91° |
| 2026-05-08 02:33 | 36.21306 | -92.81867 | 20510 ft | 293 kts | 91° |
| 2026-05-08 02:33 | 36.21230 | -92.79346 | 20471 ft | 293 kts | 91° |
| 2026-05-08 02:33 | 36.21154 | -92.76828 | 20433 ft | 294 kts | 91° |
| 2026-05-08 02:33 | 36.21078 | -92.74299 | 20396 ft | 294 kts | 91° |
| 2026-05-08 02:34 | 36.21000 | -92.71768 | 20380 ft | 294 kts | 91° |
| 2026-05-08 02:34 | 36.20923 | -92.69253 | 20366 ft | 293 kts | 91° |
| 2026-05-08 02:34 | 36.20844 | -92.66743 | 20340 ft | 292 kts | 91° |
| 2026-05-08 02:34 | 36.20767 | -92.64262 | 20313 ft | 292 kts | 91° |
| 2026-05-08 02:35 | 36.20688 | -92.61750 | 20276 ft | 293 kts | 91° |
| 2026-05-08 02:35 | 36.20609 | -92.59231 | 20239 ft | 293 kts | 91° |
| 2026-05-08 02:35 | 36.20529 | -92.56711 | 20199 ft | 293 kts | 91° |
| 2026-05-08 02:35 | 36.20448 | -92.54201 | 20191 ft | 292 kts | 91° |
| 2026-05-08 02:36 | 36.20368 | -92.51696 | 20183 ft | 291 kts | 91° |
| 2026-05-08 02:36 | 36.20289 | -92.49277 | 20162 ft | 291 kts | 91° |
| 2026-05-08 02:36 | 36.20204 | -92.46706 | 20127 ft | 291 kts | 91° |
| 2026-05-08 02:36 | 36.20121 | -92.44195 | 20092 ft | 291 kts | 91° |
| 2026-05-08 02:37 | 36.20040 | -92.41694 | 20055 ft | 292 kts | 91° |
| 2026-05-08 02:37 | 36.19956 | -92.39195 | 20015 ft | 292 kts | 91° |
| 2026-05-08 02:37 | 36.19872 | -92.36686 | 19997 ft | 291 kts | 91° |
| 2026-05-08 02:37 | 36.19787 | -92.34199 | 19990 ft | 290 kts | 91° |
| 2026-05-08 02:38 | 36.19702 | -92.31709 | 19971 ft | 290 kts | 91° |
| 2026-05-08 02:38 | 36.19618 | -92.29239 | 19946 ft | 290 kts | 91° |
| 2026-05-08 02:38 | 36.19532 | -92.26753 | 19921 ft | 290 kts | 91° |
| 2026-05-08 02:38 | 36.19446 | -92.24261 | 19895 ft | 290 kts | 91° |
| 2026-05-08 02:39 | 36.19360 | -92.21791 | 19869 ft | 289 kts | 91° |
| 2026-05-08 02:39 | 36.19273 | -92.19298 | 19850 ft | 289 kts | 91° |
| 2026-05-08 02:39 | 36.19186 | -92.16811 | 19827 ft | 289 kts | 91° |
| 2026-05-08 02:39 | 36.19098 | -92.14322 | 19802 ft | 289 kts | 91° |
| 2026-05-08 02:40 | 36.19009 | -92.11837 | 19780 ft | 289 kts | 91° |
| 2026-05-08 02:40 | 36.18920 | -92.09351 | 19765 ft | 289 kts | 91° |
| 2026-05-08 02:40 | 36.18831 | -92.06863 | 19757 ft | 289 kts | 91° |
| 2026-05-08 02:40 | 36.18741 | -92.04379 | 19741 ft | 289 kts | 91° |
| 2026-05-08 02:41 | 36.18651 | -92.01929 | 19725 ft | 288 kts | 91° |
| 2026-05-08 02:41 | 36.18561 | -91.99455 | 19707 ft | 288 kts | 91° |
| 2026-05-08 02:41 | 36.18470 | -91.96991 | 19688 ft | 288 kts | 91° |
| 2026-05-08 02:41 | 36.18379 | -91.94516 | 19675 ft | 288 kts | 91° |
| 2026-05-08 02:42 | 36.18287 | -91.92044 | 19658 ft | 288 kts | 91° |
| 2026-05-08 02:42 | 36.18194 | -91.89568 | 19633 ft | 288 kts | 91° |
| 2026-05-08 02:42 | 36.18101 | -91.87094 | 19626 ft | 288 kts | 91° |
| 2026-05-08 02:42 | 36.18009 | -91.84650 | 19619 ft | 287 kts | 91° |
| 2026-05-08 02:43 | 36.17915 | -91.82181 | 19605 ft | 287 kts | 91° |
| 2026-05-08 02:43 | 36.17821 | -91.79712 | 19590 ft | 287 kts | 91° |
| 2026-05-08 02:43 | 36.17726 | -91.77239 | 19572 ft | 287 kts | 91° |
| 2026-05-08 02:43 | 36.17631 | -91.74772 | 19560 ft | 287 kts | 91° |
| 2026-05-08 02:44 | 36.17536 | -91.72316 | 19544 ft | 287 kts | 91° |
| 2026-05-08 02:44 | 36.17440 | -91.69843 | 19537 ft | 287 kts | 91° |
| 2026-05-08 02:44 | 36.17344 | -91.67415 | 19523 ft | 287 kts | 92° |
| 2026-05-08 02:44 | 36.17248 | -91.64955 | 19511 ft | 286 kts | 92° |
| 2026-05-08 02:45 | 36.17152 | -91.62496 | 19498 ft | 286 kts | 92° |
| 2026-05-08 02:45 | 36.17054 | -91.60032 | 19482 ft | 286 kts | 92° |
| 2026-05-08 02:45 | 36.16955 | -91.57569 | 19465 ft | 286 kts | 92° |
| 2026-05-08 02:45 | 36.16856 | -91.55112 | 19451 ft | 286 kts | 92° |
| 2026-05-08 02:46 | 36.16757 | -91.52657 | 19441 ft | 286 kts | 92° |
| 2026-05-08 02:46 | 36.16657 | -91.50193 | 19436 ft | 286 kts | 92° |
| 2026-05-08 02:46 | 36.16557 | -91.47733 | 19431 ft | 286 kts | 92° |
| 2026-05-08 02:46 | 36.16457 | -91.45280 | 19408 ft | 286 kts | 92° |
| 2026-05-08 02:47 | 36.16356 | -91.42823 | 19388 ft | 286 kts | 92° |
| 2026-05-08 02:47 | 36.16255 | -91.40365 | 19367 ft | 286 kts | 92° |
| 2026-05-08 02:47 | 36.16154 | -91.37938 | 19362 ft | 286 kts | 92° |
| 2026-05-08 02:47 | 36.16052 | -91.35467 | 19360 ft | 285 kts | 92° |
| 2026-05-08 02:48 | 36.15951 | -91.33054 | 19350 ft | 285 kts | 92° |
| 2026-05-08 02:48 | 36.15848 | -91.30600 | 19334 ft | 285 kts | 92° |
| 2026-05-08 02:48 | 36.15746 | -91.28160 | 19320 ft | 286 kts | 92° |
| 2026-05-08 02:48 | 36.15643 | -91.25710 | 19311 ft | 286 kts | 92° |
| 2026-05-08 02:49 | 36.15539 | -91.23256 | 19308 ft | 285 kts | 92° |
| 2026-05-08 02:49 | 36.15435 | -91.20804 | 19304 ft | 285 kts | 92° |
| 2026-05-08 02:49 | 36.15331 | -91.18361 | 19292 ft | 285 kts | 92° |
| 2026-05-08 02:49 | 36.15228 | -91.15930 | 19281 ft | 283 kts | 90° |
| 2026-05-08 02:50 | 36.15158 | -91.13557 | 19139 ft | 271 kts | 90° |
| 2026-05-08 02:50 | 36.15057 | -91.11205 | 18588 ft | 281 kts | 94° |
| 2026-05-08 02:50 | 36.14810 | -91.08763 | 18043 ft | 288 kts | 100° |
| 2026-05-08 02:50 | 36.14350 | -91.06406 | 17874 ft | 276 kts | 109° |
| 2026-05-08 02:51 | 36.13673 | -91.04246 | 17639 ft | 267 kts | 118° |
| 2026-05-08 02:51 | 36.12762 | -91.02242 | 17068 ft | 273 kts | 128° |
| 2026-05-08 02:51 | 36.11613 | -91.00416 | 16599 ft | 273 kts | 139° |
| 2026-05-08 02:51 | 36.10273 | -90.98862 | 16400 ft | 258 kts | 149° |
| 2026-05-08 02:52 | 36.08826 | -90.97661 | 16107 ft | 247 kts | 160° |
| 2026-05-08 02:52 | 36.07263 | -90.96794 | 15628 ft | 246 kts | 171° |
| 2026-05-08 02:52 | 36.05627 | -90.96287 | 15237 ft | 239 kts | 182° |
| 2026-05-08 02:52 | 36.04021 | -90.96157 | 15010 ft | 223 kts | 193° |
| 2026-05-08 02:53 | 36.02526 | -90.96386 | 14690 ft | 213 kts | 205° |
| 2026-05-08 02:53 | 36.01137 | -90.96963 | 14250 ft | 209 kts | 216° |
| 2026-05-08 02:53 | 35.99921 | -90.97856 | 13914 ft | 200 kts | 227° |
| 2026-05-08 02:53 | 35.98943 | -90.98995 | 13644 ft | 187 kts | 239° |
| 2026-05-08 02:54 | 35.98240 | -91.00312 | 13248 ft | 182 kts | 251° |
| 2026-05-08 02:54 | 35.97810 | -91.01778 | 12775 ft | 182 kts | 262° |
| 2026-05-08 02:54 | 35.97671 | -91.03316 | 12434 ft | 178 kts | 274° |
| 2026-05-08 02:54 | 35.97826 | -91.04798 | 12147 ft | 172 kts | 286° |
| 2026-05-08 02:55 | 35.98252 | -91.06163 | 11756 ft | 174 kts | 297° |
| 2026-05-08 02:55 | 35.99817 | -91.08442 | 11068 ft | 177 kts | 319° |
| 2026-05-08 02:55 | 36.00865 | -91.09230 | 10778 ft | 177 kts | 329° |
| 2026-05-08 02:56 | 36.02042 | -91.09744 | 10433 ft | 183 kts | 340° |
| 2026-05-08 02:56 | 36.03315 | -91.09963 | 10112 ft | 187 kts | 351° |
| 2026-05-08 02:56 | 36.04615 | -91.09864 | 9825 ft | 189 kts | 1° |
| 2026-05-08 02:56 | 36.05892 | -91.09449 | 9472 ft | 194 kts | 12° |
| 2026-05-08 02:57 | 36.07137 | -91.08724 | 9069 ft | 202 kts | 23° |
| 2026-05-08 02:57 | 36.08292 | -91.07719 | 8721 ft | 206 kts | 33° |
| 2026-05-08 02:57 | 36.09304 | -91.06465 | 8441 ft | 207 kts | 44° |
| 2026-05-08 02:57 | 36.10128 | -91.05021 | 8105 ft | 210 kts | 55° |
| 2026-05-08 02:58 | 36.10783 | -91.03361 | 7753 ft | 214 kts | 65° |
| 2026-05-08 02:58 | 36.11213 | -91.01606 | 7478 ft | 212 kts | 76° |
| 2026-05-08 02:58 | 36.11413 | -90.99808 | 7190 ft | 211 kts | 86° |
| 2026-05-08 02:58 | 36.11388 | -90.98015 | 6874 ft | 211 kts | 96° |
| 2026-05-08 02:59 | 36.11139 | -90.96232 | 6598 ft | 209 kts | 106° |
| 2026-05-08 02:59 | 36.10679 | -90.94551 | 6334 ft | 204 kts | 116° |
| 2026-05-08 02:59 | 36.10018 | -90.93011 | 6009 ft | 203 kts | 126° |
| 2026-05-08 02:59 | 36.09171 | -90.91648 | 5695 ft | 200 kts | 136° |
| 2026-05-08 03:00 | 36.08161 | -90.90508 | 5417 ft | 196 kts | 146° |
| 2026-05-08 03:00 | 36.07023 | -90.89625 | 5133 ft | 191 kts | 157° |
| 2026-05-08 03:00 | 36.05790 | -90.89032 | 4812 ft | 190 kts | 168° |
| 2026-05-08 03:00 | 36.04502 | -90.88749 | 4492 ft | 187 kts | 179° |
| 2026-05-08 03:01 | 36.03224 | -90.88784 | 4229 ft | 182 kts | 190° |
| 2026-05-08 03:01 | 36.01998 | -90.89127 | 3927 ft | 180 kts | 201° |
| 2026-05-08 03:01 | 36.00863 | -90.89763 | 3631 ft | 179 kts | 212° |
| 2026-05-08 03:01 | 35.99879 | -90.90665 | 3348 ft | 176 kts | 223° |
| 2026-05-08 03:02 | 35.99086 | -90.91800 | 3024 ft | 177 kts | 234° |
| 2026-05-08 03:02 | 35.98515 | -90.93068 | 2693 ft | 179 kts | 245° |
| 2026-05-08 03:02 | 35.97845 | -90.94480 | 2591 ft | 0 kts | 333° |
| 2026-05-08 03:02 | 35.97750 | -90.95163 | 2590 ft | 0 kts | 344° |
| 2026-05-08 03:03 | 35.97664 | -90.95117 | 2604 ft | 0 kts | 355° |
| 2026-05-08 03:03 | 35.97753 | -90.95126 | 2527 ft | 172 kts | 355° |
| 2026-05-08 03:03 | 35.99070 | -90.95236 | 1492 ft | 216 kts | 358° |
| 2026-05-08 03:03 | 36.00489 | -90.95303 | 1462 ft | 194 kts | 1° |